»·PEaware :: UAL935 KCOS-KDEN

UAL935 :: KCOS-KDEN

FLIGHT INFORMATION

Flight Status: Arrived
Operator:
United Airlines
More flights by this operator :: More flights under this callsign
Pilot: Michael S. (20314)
Aircraft: AIRBUS A321
(A321)
More flights by this aircraft type
Origin: KCOS City Of Colorado Springs Mun
United States
Destination: KDEN Denver Intl
United States
More flights between these airports :: More routes between these airports
Route: COS6 ADANE V389 LUFSE JEFEL
File this flight plan on PilotEdge
Remarks: RMK / SIMBRIEF
Altitude:
(Current/Filed)
12,000ft
Speed:
(Current/Filed)
386kts
Departed: 08-Jul-22 05:02 PM
Arrived: 08-Jul-22 05:41 PM
Distance/Time
Traveled:
62nm/0:38
Distance/Time
To Go:
Arrived

Flight Plot

Page will automatically refresh every two minutes.

Flight plan parsing failed; only flown route is shown


Map Options




Map Legend


Flown Route
Filed Route
Departure Airport
Arrival Airport
Navaid (VOR, NDB)
Fix

Horizontal Profiles

Position Reports

Time Latitude Longitude Heading Altitude Ground
Speed
08-Jul-22 16:39 38.797936 -104.701548 100 6196ft 0kts
08-Jul-22 16:40 38.797936 -104.701548 100 6196ft 0kts
08-Jul-22 16:41 38.797936 -104.701548 100 6196ft 0kts
08-Jul-22 16:42 38.797936 -104.701548 100 6196ft 0kts
08-Jul-22 16:43 38.797936 -104.701548 100 6196ft 0kts
08-Jul-22 16:44 38.797936 -104.701548 100 6196ft 0kts
08-Jul-22 16:45 38.797936 -104.701548 100 6196ft 0kts
08-Jul-22 16:46 38.797936 -104.701548 100 6196ft 0kts
08-Jul-22 16:47 38.797936 -104.701548 99 6196ft 0kts
08-Jul-22 16:48 38.798024 -104.701999 129 6196ft 2kts
08-Jul-22 16:49 38.798361 -104.702627 123 6196ft 2kts
08-Jul-22 16:50 38.798411 -104.702959 356 6196ft 0kts
08-Jul-22 16:51 38.798343 -104.702951 358 6196ft 0kts
08-Jul-22 16:52 38.798343 -104.702951 358 6196ft 0kts
08-Jul-22 16:53 38.799551 -104.703210 332 6196ft 9kts
08-Jul-22 16:54 38.802375 -104.704554 0 6196ft 12kts
08-Jul-22 16:55 38.803127 -104.699474 89 6196ft 20kts
08-Jul-22 16:56 38.803135 -104.691541 88 6196ft 23kts
08-Jul-22 16:57 38.804566 -104.687652 359 6196ft 15kts
08-Jul-22 16:58 38.810220 -104.687647 359 6196ft 20kts
08-Jul-22 16:59 38.815352 -104.687636 359 6196ft 11kts
08-Jul-22 17:00 38.815935 -104.687020 85 6196ft 3kts
08-Jul-22 17:01 38.802972 -104.685744 179 6196ft 144kts
08-Jul-22 17:02 38.753482 -104.686498 181 7792ft 190kts
08-Jul-22 17:03 38.696388 -104.688204 179 8789ft 226kts
08-Jul-22 17:04 38.625856 -104.685526 179 9832ft 283kts
08-Jul-22 17:05 38.543123 -104.664752 134 11015ft 348kts
08-Jul-22 17:06 38.553078 -104.551250 31 11919ft 365kts
08-Jul-22 17:07 38.649641 -104.518088 13 11942ft 361kts
08-Jul-22 17:08 38.744623 -104.477581 17 12021ft 360kts
08-Jul-22 17:09 38.838810 -104.434688 17 12064ft 360kts
08-Jul-22 17:10 38.934269 -104.399201 3 12077ft 356kts
08-Jul-22 17:11 39.032397 -104.393654 359 12082ft 354kts
08-Jul-22 17:12 39.131023 -104.388811 359 12067ft 354kts
08-Jul-22 17:13 39.227624 -104.370252 24 12074ft 359kts
08-Jul-22 17:14 39.308999 -104.295499 34 12061ft 360kts
08-Jul-22 17:15 39.399860 -104.261252 348 12024ft 350kts
08-Jul-22 17:16 39.495012 -104.284519 347 11977ft 348kts
08-Jul-22 17:17 39.589881 -104.308059 347 11945ft 348kts
08-Jul-22 17:18 39.685005 -104.331664 347 11931ft 348kts
08-Jul-22 17:19 39.779790 -104.355249 347 11922ft 348kts
08-Jul-22 17:20 39.865932 -104.376303 347 11911ft 295kts
08-Jul-22 17:21 39.946648 -104.395775 347 11909ft 295kts
08-Jul-22 17:22 40.027333 -104.415207 347 11907ft 294kts
08-Jul-22 17:23 40.106231 -104.434133 347 11805ft 287kts
08-Jul-22 17:24 40.179787 -104.451362 347 10657ft 256kts
08-Jul-22 17:25 40.250598 -104.467906 348 8237ft 265kts
08-Jul-22 17:26 40.322046 -104.484945 347 7881ft 260kts
08-Jul-22 17:27 40.392137 -104.501507 347 7864ft 237kts
08-Jul-22 17:28 40.439572 -104.544444 264 7883ft 223kts
08-Jul-22 17:29 40.392449 -104.583306 190 7880ft 223kts
08-Jul-22 17:30 40.331197 -104.596376 191 7881ft 223kts
08-Jul-22 17:31 40.270062 -104.609704 191 7880ft 223kts
08-Jul-22 17:32 40.209066 -104.622984 191 7881ft 223kts
08-Jul-22 17:33 40.148013 -104.636342 191 7880ft 223kts
08-Jul-22 17:34 40.088008 -104.654687 191 7879ft 217kts
08-Jul-22 17:35 40.031591 -104.658023 181 7896ft 206kts
08-Jul-22 17:36 39.979737 -104.658692 181 7812ft 165kts
08-Jul-22 17:37 39.935327 -104.659267 181 6915ft 162kts
08-Jul-22 17:38 39.889357 -104.659859 180 6033ft 165kts
08-Jul-22 17:39 39.845576 -104.660265 180 5443ft 117kts
08-Jul-22 17:40 39.834417 -104.662586 182 5443ft 13kts
08-Jul-22 17:41 39.833456 -104.662646 182 5443ft 13kts

Navigation Log

Ident Type
Flight plan parsing failed, navigation log unavailable